createdAt,value
2019-03-21T00:00:57.061Z,58.14
2019-03-21T00:03:28.306Z,58.40
2019-03-21T00:05:59.359Z,58.40
2019-03-21T00:08:30.671Z,58.49
2019-03-21T00:11:05.005Z,58.77
2019-03-21T00:13:36.428Z,58.67
2019-03-21T00:16:10.561Z,58.81
2019-03-21T00:18:41.872Z,58.94
2019-03-21T00:21:13.056Z,59.07
2019-03-21T00:23:44.158Z,59.17
2019-03-21T00:26:15.061Z,59.41
2019-03-21T00:28:46.675Z,59.37
2019-03-21T00:31:17.903Z,59.47
2019-03-21T00:33:49.071Z,59.45
2019-03-21T00:36:20.663Z,59.63
2019-03-21T00:38:51.983Z,59.61
2019-03-21T00:41:23.150Z,59.65
2019-03-21T00:43:54.085Z,59.73
2019-03-21T00:46:25.206Z,59.78
2019-03-21T00:48:56.114Z,60.02
2019-03-21T00:51:27.267Z,60.04
2019-03-21T00:53:58.362Z,60.02
2019-03-21T00:56:29.492Z,60.23
2019-03-21T00:59:00.867Z,60.32
2019-03-21T01:01:32.189Z,60.39
2019-03-21T01:04:03.706Z,60.45
2019-03-21T01:06:35.133Z,60.64
2019-03-21T01:09:09.226Z,60.89
2019-03-21T01:11:40.291Z,60.90
2019-03-21T01:14:11.541Z,61.04
2019-03-21T01:16:42.729Z,61.15
2019-03-21T01:19:14.847Z,61.39
2019-03-21T01:21:45.823Z,61.54
2019-03-21T01:24:16.921Z,61.66
2019-03-21T01:26:48.029Z,61.74
2019-03-21T01:29:19.050Z,61.81
2019-03-21T01:31:50.240Z,61.98
2019-03-21T01:34:21.096Z,61.97
2019-03-21T01:36:52.286Z,62.18
2019-03-21T01:39:23.581Z,62.33
2019-03-21T01:41:54.823Z,62.60
2019-03-21T01:44:25.530Z,62.63
2019-03-21T01:46:56.746Z,62.61
2019-03-21T01:49:28.448Z,62.62
2019-03-21T01:51:59.381Z,62.86
2019-03-21T01:54:30.491Z,62.86
2019-03-21T01:57:01.592Z,63.05
2019-03-21T01:59:44.951Z,63.17
2019-03-21T02:02:16.087Z,63.48
2019-03-21T02:04:46.949Z,63.43
2019-03-21T02:07:18.146Z,63.45
2019-03-21T02:09:48.870Z,63.65
2019-03-21T02:12:19.857Z,63.84
2019-03-21T02:14:52.327Z,64.06
2019-03-21T02:17:23.538Z,64.25
2019-03-21T02:19:54.916Z,64.17
2019-03-21T02:22:26.052Z,64.29
2019-03-21T02:24:57.080Z,64.43
2019-03-21T02:27:29.525Z,64.78
2019-03-21T02:30:00.669Z,64.97
2019-03-21T02:32:33.308Z,65.11
2019-03-21T02:35:06.318Z,65.37
2019-03-21T02:37:37.308Z,65.50
2019-03-21T02:40:11.748Z,65.82
2019-03-21T02:42:43.024Z,65.80
2019-03-21T02:45:16.160Z,65.97
2019-03-21T02:47:47.177Z,65.95
2019-03-21T02:50:21.485Z,65.93
2019-03-21T02:52:52.719Z,66.29
2019-03-21T02:55:24.842Z,66.52
2019-03-21T02:57:56.089Z,66.68
2019-03-21T03:00:30.504Z,66.88
2019-03-21T03:03:01.989Z,66.86
2019-03-21T03:05:34.349Z,66.89
2019-03-21T03:08:06.998Z,67.05
2019-03-21T03:10:40.648Z,67.16
2019-03-21T03:13:11.592Z,66.91
2019-03-21T03:15:43.336Z,67.01
2019-03-21T03:18:17.591Z,67.24
2019-03-21T03:20:48.904Z,67.39
2019-03-21T03:23:20.383Z,67.51
2019-03-21T03:25:51.653Z,67.66
2019-03-21T03:28:26.276Z,67.84
2019-03-21T03:30:59.098Z,68.15
2019-03-21T03:33:29.905Z,67.99
2019-03-21T03:36:01.299Z,68.22
2019-03-21T03:38:33.406Z,68.31
2019-03-21T03:41:07.906Z,68.33
2019-03-21T03:43:39.209Z,68.16
2019-03-21T03:46:10.148Z,68.47
2019-03-21T03:48:41.380Z,68.60
2019-03-21T03:51:12.886Z,68.79
2019-03-21T03:53:44.433Z,69.09
2019-03-21T03:56:15.688Z,69.23
2019-03-21T03:58:50.369Z,69.46
2019-03-21T04:01:21.514Z,69.43
2019-03-21T04:03:52.846Z,69.50
2019-03-21T04:06:24.056Z,69.62
2019-03-21T04:08:55.301Z,69.59
2019-03-21T04:11:26.895Z,69.68
2019-03-21T04:13:57.904Z,69.80
2019-03-21T04:16:29.086Z,69.77
2019-03-21T04:19:00.426Z,69.87
2019-03-21T04:21:32.108Z,69.73
2019-03-21T04:24:03.021Z,69.86
2019-03-21T04:26:36.551Z,69.54
2019-03-21T04:29:07.869Z,69.51
2019-03-21T04:31:39.168Z,69.64
2019-03-21T04:34:11.236Z,69.80
2019-03-21T04:36:42.234Z,69.85
2019-03-21T04:39:13.044Z,69.84
2019-03-21T04:41:47.008Z,69.96
2019-03-21T04:44:18.570Z,70.13
2019-03-21T04:46:49.557Z,70.17
2019-03-21T04:49:20.511Z,70.21
2019-03-21T04:51:51.758Z,70.23
2019-03-21T04:54:22.528Z,70.22
2019-03-21T04:56:54.509Z,70.43
2019-03-21T04:59:25.622Z,70.40
2019-03-21T05:01:56.988Z,70.39
2019-03-21T05:04:28.007Z,70.41
2019-03-21T05:06:59.209Z,70.45
2019-03-21T05:09:30.461Z,70.44
2019-03-21T05:12:01.417Z,70.65
2019-03-21T05:14:32.985Z,70.75
2019-03-21T05:17:04.447Z,70.54
2019-03-21T05:19:35.533Z,70.41
2019-03-21T05:22:06.512Z,70.60
2019-03-21T05:24:37.924Z,70.79
2019-03-21T05:27:09.230Z,70.85
2019-03-21T05:29:40.474Z,70.62
2019-03-21T05:32:11.630Z,70.69
2019-03-21T05:34:43.029Z,70.60
2019-03-21T05:37:14.811Z,70.46
2019-03-21T05:39:48.896Z,70.62
2019-03-21T05:42:20.128Z,70.50
2019-03-21T05:44:51.185Z,70.47
2019-03-21T05:47:22.097Z,70.49
2019-03-21T05:49:54.344Z,70.37
2019-03-21T05:52:25.414Z,70.14
2019-03-21T05:54:57.727Z,70.12
2019-03-21T05:57:32.769Z,70.17
2019-03-21T06:00:08.608Z,70.22
2019-03-21T06:10:05.429Z,70.51
2019-03-21T06:12:39.512Z,70.64
2019-03-21T06:15:14.582Z,70.68
2019-03-21T06:35:26.969Z,70.96
2019-03-21T06:37:58.494Z,70.99
2019-03-21T06:40:29.764Z,70.99
2019-03-21T06:43:00.643Z,70.81
2019-03-21T06:45:31.799Z,71.22
2019-03-21T06:48:02.727Z,71.23
2019-03-21T06:50:33.854Z,71.46
2019-03-21T06:53:04.631Z,71.66
2019-03-21T06:55:35.494Z,71.40
2019-03-21T06:58:06.566Z,71.39
2019-03-21T07:00:37.439Z,71.35
2019-03-21T07:03:08.627Z,71.51
2019-03-21T07:05:39.608Z,71.24
2019-03-21T07:08:10.705Z,71.10
2019-03-21T07:10:42.227Z,71.51
2019-03-21T07:13:13.719Z,71.13
2019-03-21T07:15:45.181Z,71.23
2019-03-21T07:18:16.357Z,71.20
2019-03-21T07:20:48.713Z,71.30
2019-03-21T07:23:20.121Z,71.58
2019-03-21T07:25:51.317Z,72.06
2019-03-21T07:28:22.494Z,71.76
2019-03-21T07:30:53.483Z,71.99
2019-03-21T07:33:24.964Z,72.58
2019-03-21T07:35:56.124Z,72.16
2019-03-21T07:38:27.062Z,72.53
2019-03-21T07:40:58.739Z,72.29
2019-03-21T07:43:29.884Z,72.15
2019-03-21T07:46:01.374Z,72.03
2019-03-21T07:48:32.278Z,71.90
2019-03-21T07:51:04.072Z,72.17
2019-03-21T07:53:35.157Z,72.07
2019-03-21T07:56:06.110Z,72.32
2019-03-21T07:58:38.327Z,71.81
2019-03-21T08:01:09.719Z,71.92
2019-03-21T08:03:40.953Z,71.36
2019-03-21T08:06:12.182Z,71.49
2019-03-21T08:08:43.793Z,71.87
2019-03-21T08:11:15.366Z,71.33
2019-03-21T08:13:47.054Z,71.71
2019-03-21T08:16:18.182Z,71.35
2019-03-21T08:18:50.454Z,71.12
2019-03-21T08:21:22.315Z,71.48
2019-03-21T08:23:53.956Z,71.91
2019-03-21T08:26:25.138Z,71.42
2019-03-21T08:28:57.610Z,71.72
2019-03-21T08:31:29.392Z,71.46
2019-03-21T08:34:00.657Z,71.21
2019-03-21T08:36:32.217Z,70.61
2019-03-21T08:39:04.822Z,70.39
2019-03-21T08:41:36.380Z,70.30
2019-03-21T08:44:08.136Z,69.67
2019-03-21T08:46:42.197Z,69.43
2019-03-21T08:49:16.595Z,70.08
2019-03-21T08:51:48.361Z,69.10
2019-03-21T08:54:19.958Z,68.83
2019-03-21T08:56:51.137Z,68.93
2019-03-21T08:59:22.335Z,68.22
2019-03-21T09:01:56.356Z,67.97
2019-03-21T09:04:28.234Z,68.22
2019-03-21T09:06:59.902Z,67.84
2019-03-21T09:09:31.238Z,68.27
2019-03-21T09:12:03.921Z,67.42
2019-03-21T09:14:36.570Z,67.15
2019-03-21T09:17:07.611Z,68.04
2019-03-21T09:19:40.319Z,67.19
2019-03-21T09:22:11.372Z,66.57
2019-03-21T09:24:42.443Z,66.68
2019-03-21T09:27:13.474Z,66.13
2019-03-21T09:29:53.470Z,65.69
2019-03-21T09:32:20.064Z,65.75
2019-03-21T09:34:51.035Z,65.99
2019-03-21T09:37:22.567Z,65.59
2019-03-21T09:39:53.934Z,64.28
2019-03-21T09:42:25.143Z,64.08
2019-03-21T09:44:57.094Z,64.53
2019-03-21T09:47:28.005Z,64.63
2019-03-21T09:50:00.047Z,64.33
2019-03-21T09:52:31.646Z,64.78
2019-03-21T09:55:07.156Z,65.34
2019-03-21T09:57:39.077Z,65.72
2019-03-21T10:00:11.237Z,65.25
2019-03-21T10:02:42.396Z,64.38
2019-03-21T10:05:13.683Z,64.77
2019-03-21T10:07:44.628Z,65.19
2019-03-21T10:10:19.122Z,64.60
2019-03-21T10:12:50.935Z,65.01
2019-03-21T10:15:22.482Z,64.13
2019-03-21T10:17:54.698Z,62.62
2019-03-21T10:20:26.097Z,62.20
2019-03-21T10:22:57.458Z,61.57
2019-03-21T10:25:29.976Z,61.84
2019-03-21T10:28:01.938Z,61.77
2019-03-21T10:30:36.022Z,62.46
2019-03-21T10:33:10.192Z,62.28
2019-03-21T10:35:41.768Z,62.53
2019-03-21T10:38:13.618Z,61.88
2019-03-21T10:40:44.815Z,62.50
2019-03-21T10:43:16.206Z,62.12
2019-03-21T10:45:47.499Z,63.04
2019-03-21T10:48:18.791Z,62.95
2019-03-21T10:50:50.161Z,62.50
2019-03-21T10:53:25.801Z,62.19
2019-03-21T10:55:57.676Z,62.01
2019-03-21T10:58:29.682Z,61.73
2019-03-21T11:01:08.883Z,61.32
2019-03-21T11:03:40.376Z,61.52
2019-03-21T11:06:11.733Z,60.54
2019-03-21T11:08:48.302Z,59.46
2019-03-21T11:11:19.401Z,60.62
2019-03-21T11:13:54.874Z,59.48
2019-03-21T11:16:26.288Z,58.56
2019-03-21T11:18:57.656Z,58.46
2019-03-21T11:21:29.058Z,56.61
2019-03-21T11:24:00.727Z,56.46
2019-03-21T11:26:33.266Z,55.70
2019-03-21T11:29:04.639Z,56.32
2019-03-21T11:31:35.809Z,55.86
2019-03-21T11:34:07.728Z,56.87
2019-03-21T11:36:40.168Z,56.60
2019-03-21T11:39:11.677Z,57.17
2019-03-21T11:41:42.685Z,58.19
2019-03-21T11:44:13.666Z,57.49
2019-03-21T11:46:44.801Z,57.52
2019-03-21T11:49:17.266Z,57.25
2019-03-21T11:51:48.189Z,57.06
2019-03-21T11:54:19.361Z,58.08
2019-03-21T11:56:50.561Z,58.40
2019-03-21T11:59:22.249Z,58.28
2019-03-21T12:01:53.546Z,59.21
2019-03-21T12:04:24.603Z,59.67
2019-03-21T12:06:56.465Z,59.53
2019-03-21T12:09:30.058Z,59.53
2019-03-21T12:12:01.310Z,60.35
2019-03-21T12:14:33.034Z,59.60
2019-03-21T12:17:04.305Z,59.58
2019-03-21T12:19:35.498Z,59.33
2019-03-21T12:22:06.738Z,59.38
2019-03-21T12:24:38.618Z,58.46
2019-03-21T12:27:10.244Z,58.99
2019-03-21T12:29:41.277Z,60.21
2019-03-21T12:32:12.597Z,61.18
2019-03-21T12:34:43.941Z,61.39
2019-03-21T12:37:15.518Z,60.07
2019-03-21T12:39:47.306Z,60.10
2019-03-21T12:42:18.791Z,60.87
2019-03-21T12:44:50.703Z,61.37
2019-03-21T12:47:30.829Z,61.22
2019-03-21T12:49:55.489Z,60.92
2019-03-21T12:52:27.077Z,60.80
2019-03-21T12:54:57.791Z,61.28
2019-03-21T12:57:28.960Z,62.19
2019-03-21T13:00:02.952Z,62.26
2019-03-21T13:02:36.320Z,63.42
2019-03-21T13:05:08.372Z,63.93
2019-03-21T13:08:00.969Z,63.97
2019-03-21T13:11:04.653Z,64.11
2019-03-21T13:23:35.582Z,63.04
2019-03-21T13:26:17.097Z,62.60
2019-03-21T13:28:53.721Z,62.89
2019-03-21T13:31:48.528Z,63.45
2019-03-21T13:34:12.878Z,63.01
2019-03-21T13:36:48.796Z,63.38
2019-03-21T13:39:33.585Z,64.00
2019-03-21T13:42:16.591Z,63.93
2019-03-21T13:44:58.597Z,64.87
2019-03-21T13:53:45.457Z,64.67
2019-03-21T13:56:17.050Z,65.06
2019-03-21T13:58:53.212Z,65.07
2019-03-21T14:01:35.179Z,65.25
2019-03-21T14:04:12.610Z,65.21
2019-03-21T14:06:45.843Z,65.35
2019-03-21T14:09:31.316Z,65.16
2019-03-21T14:16:22.737Z,65.14
2019-03-21T14:19:03.267Z,64.77
2019-03-21T14:21:38.518Z,64.79
2019-03-21T14:24:11.441Z,64.99
2019-03-21T14:26:43.554Z,64.65
2019-03-21T14:29:14.546Z,64.78
2019-03-21T14:31:45.794Z,65.00
2019-03-21T14:34:17.120Z,65.08
2019-03-21T14:36:48.555Z,65.20
2019-03-21T14:39:19.761Z,65.27
2019-03-21T14:41:51.196Z,64.92
2019-03-21T14:44:23.011Z,65.13
2019-03-21T14:46:54.571Z,65.51
2019-03-21T14:49:26.389Z,65.12
2019-03-21T14:51:58.333Z,65.35
2019-03-21T14:54:33.734Z,65.75
2019-03-21T14:57:07.455Z,65.79
2019-03-21T14:59:39.502Z,65.68
2019-03-21T15:02:14.230Z,65.92
2019-03-21T15:04:46.900Z,65.32
2019-03-21T15:07:20.209Z,65.84
2019-03-21T15:09:53.710Z,66.03
2019-03-21T15:12:25.876Z,66.25
2019-03-21T15:14:57.393Z,65.90
2019-03-21T15:24:15.904Z,66.26
2019-03-21T16:16:22.315Z,67.63
2019-03-21T16:18:56.478Z,67.55
2019-03-21T16:21:38.961Z,68.04
2019-03-21T16:37:24.213Z,68.99
2019-03-21T16:46:49.891Z,69.28
2019-03-21T16:49:30.795Z,69.43
2019-03-21T16:52:08.835Z,69.55
2019-03-21T16:54:39.769Z,69.73
2019-03-21T16:57:28.710Z,69.74
2019-03-21T17:00:01.861Z,70.02
2019-03-21T17:02:45.378Z,69.94
2019-03-21T17:05:25.635Z,70.18
2019-03-21T17:08:12.797Z,70.12
2019-03-21T17:10:52.660Z,69.99
2019-03-21T17:13:33.405Z,70.08
2019-03-21T17:16:05.786Z,70.26
2019-03-21T17:47:51.744Z,71.01
2019-03-21T17:50:24.194Z,71.37
2019-03-21T17:56:00.357Z,71.50
2019-03-21T17:58:31.775Z,71.83
2019-03-21T18:01:04.542Z,71.82
2019-03-21T18:03:38.798Z,71.92
2019-03-21T18:06:11.600Z,71.67
2019-03-21T18:08:42.351Z,71.94
2019-03-21T18:11:17.441Z,71.90
2019-03-21T18:14:04.431Z,71.77
2019-03-21T18:16:50.908Z,71.40
2019-03-21T18:19:30.650Z,71.30
2019-03-21T18:22:02.727Z,71.56
2019-03-21T18:24:33.650Z,71.65
2019-03-21T18:27:04.356Z,71.52
2019-03-21T18:32:38.933Z,72.07
2019-03-21T18:35:11.265Z,72.18
2019-03-21T18:44:39.661Z,72.21
2019-03-21T18:47:53.311Z,72.01
2019-03-21T18:47:55.897Z,71.83
2019-03-21T18:50:22.662Z,71.71
2019-03-21T18:52:56.450Z,72.00
2019-03-21T18:55:52.499Z,72.41
2019-03-21T18:58:56.447Z,72.90
2019-03-21T19:01:19.427Z,73.05
2019-03-21T19:03:54.657Z,73.11
2019-03-21T19:06:53.691Z,73.47
2019-03-21T19:09:46.769Z,73.84
2019-03-21T19:12:33.171Z,74.14
2019-03-21T19:15:21.853Z,74.13
2019-03-21T19:17:54.983Z,74.01
2019-03-21T19:20:26.166Z,74.30
2019-03-21T19:22:57.270Z,74.17
2019-03-21T19:28:15.709Z,74.27
2019-03-21T19:30:52.440Z,74.22
2019-03-21T19:33:26.549Z,74.16
2019-03-21T19:35:58.762Z,73.97
2019-03-21T19:38:31.466Z,74.17
2019-03-21T19:41:03.035Z,74.54
2019-03-21T19:43:34.179Z,74.42
2019-03-21T19:46:06.903Z,74.60
2019-03-21T19:48:45.711Z,74.63
2019-03-21T19:51:10.999Z,74.72
2019-03-21T19:53:42.319Z,74.59
2019-03-21T19:56:13.902Z,74.70
2019-03-21T19:58:45.776Z,74.71
2019-03-21T20:01:17.641Z,74.64
2019-03-21T20:03:48.763Z,74.62
2019-03-21T20:06:20.061Z,74.84
2019-03-21T20:08:52.101Z,74.83
2019-03-21T20:11:23.504Z,74.75
2019-03-21T20:13:58.054Z,74.93
2019-03-21T20:16:29.004Z,74.87
2019-03-21T20:19:00.138Z,74.90
2019-03-21T20:21:32.362Z,74.98
2019-03-21T20:24:04.690Z,74.92
2019-03-21T20:26:40.019Z,75.19
2019-03-21T20:29:11.500Z,74.95
2019-03-21T20:31:43.485Z,75.27
2019-03-21T20:34:15.190Z,75.56
2019-03-21T20:36:47.363Z,75.43
2019-03-21T20:39:18.391Z,75.51
2019-03-21T20:41:49.440Z,75.50
2019-03-21T20:44:20.827Z,75.49
2019-03-21T20:46:51.962Z,75.41
2019-03-21T20:49:23.021Z,75.70
2019-03-21T20:51:56.187Z,75.80
2019-03-21T20:54:30.388Z,75.77
2019-03-21T20:57:01.962Z,75.75
2019-03-21T20:59:33.151Z,75.69
2019-03-21T21:02:05.068Z,75.46
2019-03-21T21:04:35.955Z,75.45
2019-03-21T21:07:07.486Z,75.43
2019-03-21T21:09:39.027Z,75.68
2019-03-21T21:12:10.310Z,75.72
2019-03-21T21:14:41.516Z,75.97
2019-03-21T21:17:12.674Z,76.00
2019-03-21T21:19:43.887Z,76.22
2019-03-21T21:22:14.905Z,76.31
2019-03-21T21:24:45.624Z,76.29
2019-03-21T21:27:17.177Z,76.61
2019-03-21T21:29:48.757Z,76.54
2019-03-21T21:32:20.412Z,76.45
2019-03-21T21:34:54.757Z,76.36
2019-03-21T21:37:26.198Z,76.44
2019-03-21T21:39:57.573Z,76.54
2019-03-21T21:42:28.652Z,76.41
2019-03-21T21:44:59.640Z,76.61
2019-03-21T21:47:31.124Z,76.77
2019-03-21T21:50:02.697Z,76.67
2019-03-21T21:52:41.867Z,76.79
2019-03-21T21:55:08.604Z,76.65
2019-03-21T21:57:39.438Z,76.88
2019-03-21T22:00:13.767Z,77.11
2019-03-21T22:02:45.884Z,77.34
2019-03-21T22:05:17.314Z,77.26
2019-03-21T22:07:48.294Z,77.34
2019-03-21T22:10:20.347Z,77.43
2019-03-21T22:12:51.633Z,77.61
2019-03-21T22:15:23.068Z,77.69
2019-03-21T22:17:54.383Z,77.83
2019-03-21T22:20:25.867Z,77.83
2019-03-21T22:22:57.124Z,77.67
2019-03-21T22:25:28.081Z,77.78
2019-03-21T22:27:59.037Z,78.11
2019-03-21T22:30:30.446Z,78.14
2019-03-21T22:33:01.860Z,78.33
2019-03-21T22:35:32.863Z,78.50
2019-03-21T22:38:03.869Z,78.66
2019-03-21T22:40:35.332Z,78.63
2019-03-21T22:43:06.395Z,78.69
2019-03-21T22:45:37.666Z,78.76
2019-03-21T22:48:09.345Z,78.90
2019-03-21T22:50:41.083Z,78.73
2019-03-21T22:53:12.283Z,78.71
2019-03-21T22:55:43.330Z,78.96
2019-03-21T22:58:14.386Z,79.03
2019-03-21T23:00:47.300Z,78.89
2019-03-21T23:03:18.840Z,78.89
2019-03-21T23:05:50.092Z,79.07
2019-03-21T23:08:21.608Z,78.77
2019-03-21T23:10:53.420Z,78.86
2019-03-21T23:13:25.189Z,78.85
2019-03-21T23:15:58.496Z,78.69
2019-03-21T23:18:30.104Z,79.04
2019-03-21T23:21:01.435Z,79.06
2019-03-21T23:23:32.647Z,79.11
2019-03-21T23:26:03.894Z,79.16
2019-03-21T23:28:35.171Z,79.37
2019-03-21T23:31:06.694Z,79.41
2019-03-21T23:33:37.747Z,79.33
2019-03-21T23:36:08.899Z,79.44
2019-03-21T23:38:40.687Z,79.76
2019-03-21T23:41:12.262Z,79.95
2019-03-21T23:43:43.509Z,79.91
2019-03-21T23:46:15.015Z,79.93
2019-03-21T23:48:46.297Z,79.84
2019-03-21T23:51:17.423Z,79.98
2019-03-21T23:54:18.554Z,80.18
2019-03-21T23:56:49.464Z,80.31
2019-03-21T23:59:20.877Z,80.90
